sensor_id;sensor_type;location;lat;lon;timestamp;P1;durP1;ratioP1;P2;durP2;ratioP2
38262;SDS011;24054;50.128;19.730;2023-02-12T00:01:12;10.40;;;8.13;;
38262;SDS011;24054;50.128;19.730;2023-02-12T00:03:40;9.82;;;7.97;;
38262;SDS011;24054;50.128;19.730;2023-02-12T00:06:07;10.98;;;8.23;;
38262;SDS011;24054;50.128;19.730;2023-02-12T00:08:37;10.02;;;8.18;;
38262;SDS011;24054;50.128;19.730;2023-02-12T00:11:08;9.82;;;8.10;;
38262;SDS011;24054;50.128;19.730;2023-02-12T00:13:36;9.80;;;8.05;;
38262;SDS011;24054;50.128;19.730;2023-02-12T00:16:04;10.10;;;8.07;;
38262;SDS011;24054;50.128;19.730;2023-02-12T00:18:33;10.57;;;7.95;;
38262;SDS011;24054;50.128;19.730;2023-02-12T00:21:02;10.85;;;8.35;;
38262;SDS011;24054;50.128;19.730;2023-02-12T00:23:30;11.48;;;7.85;;
38262;SDS011;24054;50.128;19.730;2023-02-12T00:25:58;12.20;;;8.30;;
38262;SDS011;24054;50.128;19.730;2023-02-12T00:28:25;10.13;;;7.85;;
38262;SDS011;24054;50.128;19.730;2023-02-12T00:30:52;10.57;;;8.13;;
38262;SDS011;24054;50.128;19.730;2023-02-12T00:35:54;11.55;;;7.75;;
38262;SDS011;24054;50.128;19.730;2023-02-12T00:38:21;10.85;;;8.00;;
38262;SDS011;24054;50.128;19.730;2023-02-12T00:40:48;11.27;;;8.27;;
38262;SDS011;24054;50.128;19.730;2023-02-12T00:43:17;10.90;;;8.27;;
38262;SDS011;24054;50.128;19.730;2023-02-12T00:45:44;9.88;;;7.72;;
38262;SDS011;24054;50.128;19.730;2023-02-12T00:48:11;8.93;;;7.25;;
38262;SDS011;24054;50.128;19.730;2023-02-12T00:50:38;9.55;;;7.70;;
38262;SDS011;24054;50.128;19.730;2023-02-12T00:53:06;10.43;;;7.72;;
38262;SDS011;24054;50.128;19.730;2023-02-12T00:55:33;10.05;;;8.20;;
38262;SDS011;24054;50.128;19.730;2023-02-12T00:58:00;11.93;;;8.32;;
38262;SDS011;24054;50.128;19.730;2023-02-12T01:00:29;10.23;;;8.13;;
38262;SDS011;24054;50.128;19.730;2023-02-12T01:02:56;10.65;;;8.20;;
38262;SDS011;24054;50.128;19.730;2023-02-12T01:05:23;10.10;;;7.90;;
38262;SDS011;24054;50.128;19.730;2023-02-12T01:07:50;8.95;;;7.40;;
38262;SDS011;24054;50.128;19.730;2023-02-12T01:10:19;10.82;;;7.53;;
38262;SDS011;24054;50.128;19.730;2023-02-12T01:12:46;10.25;;;8.45;;
38262;SDS011;24054;50.128;19.730;2023-02-12T01:15:17;10.07;;;8.13;;
38262;SDS011;24054;50.128;19.730;2023-02-12T01:17:46;9.57;;;7.78;;
38262;SDS011;24054;50.128;19.730;2023-02-12T01:20:14;11.20;;;8.20;;
38262;SDS011;24054;50.128;19.730;2023-02-12T01:22:42;9.43;;;7.20;;
38262;SDS011;24054;50.128;19.730;2023-02-12T01:25:10;10.77;;;7.78;;
38262;SDS011;24054;50.128;19.730;2023-02-12T01:27:38;9.20;;;7.32;;
38262;SDS011;24054;50.128;19.730;2023-02-12T01:30:06;10.27;;;7.83;;
38262;SDS011;24054;50.128;19.730;2023-02-12T01:32:37;9.75;;;7.35;;
38262;SDS011;24054;50.128;19.730;2023-02-12T01:35:06;10.88;;;7.38;;
38262;SDS011;24054;50.128;19.730;2023-02-12T01:37:35;9.40;;;7.10;;
38262;SDS011;24054;50.128;19.730;2023-02-12T01:40:03;12.70;;;8.10;;
38262;SDS011;24054;50.128;19.730;2023-02-12T01:42:31;9.15;;;7.30;;
38262;SDS011;24054;50.128;19.730;2023-02-12T01:48:10;10.20;;;7.38;;
38262;SDS011;24054;50.128;19.730;2023-02-12T01:50:39;9.40;;;7.43;;
38262;SDS011;24054;50.128;19.730;2023-02-12T01:53:07;9.55;;;7.70;;
38262;SDS011;24054;50.128;19.730;2023-02-12T01:55:35;10.00;;;7.47;;
38262;SDS011;24054;50.128;19.730;2023-02-12T01:58:02;9.63;;;7.68;;
38262;SDS011;24054;50.128;19.730;2023-02-12T02:00:30;10.18;;;7.50;;
38262;SDS011;24054;50.128;19.730;2023-02-12T02:02:57;8.65;;;7.05;;
38262;SDS011;24054;50.128;19.730;2023-02-12T02:05:29;9.25;;;7.55;;
38262;SDS011;24054;50.128;19.730;2023-02-12T02:08:03;9.57;;;6.80;;
38262;SDS011;24054;50.128;19.730;2023-02-12T02:10:30;9.35;;;7.25;;
38262;SDS011;24054;50.128;19.730;2023-02-12T02:12:58;8.25;;;6.70;;
38262;SDS011;24054;50.128;19.730;2023-02-12T02:15:44;7.70;;;6.63;;
38262;SDS011;24054;50.128;19.730;2023-02-12T02:18:14;8.40;;;6.53;;
38262;SDS011;24054;50.128;19.730;2023-02-12T02:20:56;8.65;;;6.63;;
38262;SDS011;24054;50.128;19.730;2023-02-12T02:23:58;9.55;;;6.88;;
38262;SDS011;24054;50.128;19.730;2023-02-12T02:26:46;9.00;;;6.78;;
38262;SDS011;24054;50.128;19.730;2023-02-12T02:29:40;7.85;;;5.93;;
38262;SDS011;24054;50.128;19.730;2023-02-12T02:32:42;7.93;;;6.15;;
38262;SDS011;24054;50.128;19.730;2023-02-12T02:35:17;8.20;;;6.45;;
38262;SDS011;24054;50.128;19.730;2023-02-12T02:37:55;7.78;;;6.50;;
38262;SDS011;24054;50.128;19.730;2023-02-12T02:40:32;10.10;;;6.82;;
38262;SDS011;24054;50.128;19.730;2023-02-12T02:43:06;6.85;;;5.78;;
38262;SDS011;24054;50.128;19.730;2023-02-12T02:45:41;7.93;;;5.88;;
38262;SDS011;24054;50.128;19.730;2023-02-12T02:48:13;8.68;;;6.75;;
38262;SDS011;24054;50.128;19.730;2023-02-12T02:50:45;6.95;;;5.30;;
38262;SDS011;24054;50.128;19.730;2023-02-12T02:53:17;7.38;;;6.13;;
38262;SDS011;24054;50.128;19.730;2023-02-12T02:55:48;6.18;;;5.55;;
38262;SDS011;24054;50.128;19.730;2023-02-12T02:58:19;6.90;;;6.05;;
38262;SDS011;24054;50.128;19.730;2023-02-12T03:00:49;7.88;;;6.30;;
38262;SDS011;24054;50.128;19.730;2023-02-12T03:03:26;7.10;;;5.57;;
38262;SDS011;24054;50.128;19.730;2023-02-12T03:05:58;6.20;;;5.28;;
38262;SDS011;24054;50.128;19.730;2023-02-12T03:08:28;7.60;;;5.88;;
38262;SDS011;24054;50.128;19.730;2023-02-12T03:11:02;7.38;;;5.60;;
38262;SDS011;24054;50.128;19.730;2023-02-12T03:13:36;6.38;;;5.40;;
38262;SDS011;24054;50.128;19.730;2023-02-12T03:16:07;6.43;;;5.03;;
38262;SDS011;24054;50.128;19.730;2023-02-12T03:18:41;5.70;;;5.03;;
38262;SDS011;24054;50.128;19.730;2023-02-12T03:21:12;6.95;;;5.38;;
38262;SDS011;24054;50.128;19.730;2023-02-12T03:23:43;6.68;;;5.75;;
38262;SDS011;24054;50.128;19.730;2023-02-12T03:26:18;6.80;;;5.22;;
38262;SDS011;24054;50.128;19.730;2023-02-12T03:28:48;6.78;;;5.28;;
38262;SDS011;24054;50.128;19.730;2023-02-12T03:31:19;5.75;;;4.82;;
38262;SDS011;24054;50.128;19.730;2023-02-12T03:33:57;8.43;;;5.28;;
38262;SDS011;24054;50.128;19.730;2023-02-12T03:36:34;6.18;;;5.05;;
38262;SDS011;24054;50.128;19.730;2023-02-12T03:41:43;5.90;;;4.72;;
38262;SDS011;24054;50.128;19.730;2023-02-12T03:44:14;6.18;;;5.30;;
38262;SDS011;24054;50.128;19.730;2023-02-12T03:46:52;7.25;;;5.63;;
38262;SDS011;24054;50.128;19.730;2023-02-12T03:49:28;5.13;;;4.32;;
38262;SDS011;24054;50.128;19.730;2023-02-12T03:52:00;5.78;;;4.68;;
38262;SDS011;24054;50.128;19.730;2023-02-12T03:54:28;6.32;;;4.80;;
38262;SDS011;24054;50.128;19.730;2023-02-12T03:56:56;5.00;;;4.35;;
38262;SDS011;24054;50.128;19.730;2023-02-12T03:59:27;5.95;;;4.53;;
38262;SDS011;24054;50.128;19.730;2023-02-12T04:01:56;5.88;;;4.68;;
38262;SDS011;24054;50.128;19.730;2023-02-12T04:04:24;6.00;;;4.40;;
38262;SDS011;24054;50.128;19.730;2023-02-12T04:06:53;5.88;;;4.70;;
38262;SDS011;24054;50.128;19.730;2023-02-12T04:11:55;5.10;;;4.32;;
38262;SDS011;24054;50.128;19.730;2023-02-12T04:14:35;5.32;;;4.22;;
38262;SDS011;24054;50.128;19.730;2023-02-12T04:17:11;5.80;;;4.88;;
38262;SDS011;24054;50.128;19.730;2023-02-12T04:19:47;6.38;;;4.85;;
38262;SDS011;24054;50.128;19.730;2023-02-12T04:22:28;5.75;;;4.57;;
38262;SDS011;24054;50.128;19.730;2023-02-12T04:25:07;6.63;;;4.47;;
38262;SDS011;24054;50.128;19.730;2023-02-12T04:27:43;6.18;;;4.40;;
38262;SDS011;24054;50.128;19.730;2023-02-12T04:30:17;5.93;;;4.40;;
38262;SDS011;24054;50.128;19.730;2023-02-12T04:32:50;5.38;;;3.92;;
38262;SDS011;24054;50.128;19.730;2023-02-12T04:35:23;5.88;;;4.40;;
38262;SDS011;24054;50.128;19.730;2023-02-12T04:37:54;6.05;;;4.63;;
38262;SDS011;24054;50.128;19.730;2023-02-12T04:40:27;4.97;;;4.30;;
38262;SDS011;24054;50.128;19.730;2023-02-12T04:42:54;5.22;;;4.00;;
38262;SDS011;24054;50.128;19.730;2023-02-12T04:45:23;6.68;;;4.05;;
38262;SDS011;24054;50.128;19.730;2023-02-12T04:47:52;5.45;;;4.70;;
38262;SDS011;24054;50.128;19.730;2023-02-12T04:50:19;5.50;;;4.03;;
38262;SDS011;24054;50.128;19.730;2023-02-12T04:52:46;5.20;;;3.95;;
38262;SDS011;24054;50.128;19.730;2023-02-12T04:55:15;5.88;;;4.45;;
38262;SDS011;24054;50.128;19.730;2023-02-12T04:57:42;5.25;;;4.05;;
38262;SDS011;24054;50.128;19.730;2023-02-12T05:00:11;10.23;;;4.40;;
38262;SDS011;24054;50.128;19.730;2023-02-12T05:02:39;5.38;;;3.97;;
38262;SDS011;24054;50.128;19.730;2023-02-12T05:05:06;5.30;;;4.22;;
38262;SDS011;24054;50.128;19.730;2023-02-12T05:07:33;4.72;;;3.60;;
38262;SDS011;24054;50.128;19.730;2023-02-12T05:10:00;4.80;;;3.80;;
38262;SDS011;24054;50.128;19.730;2023-02-12T05:12:29;4.63;;;3.58;;
38262;SDS011;24054;50.128;19.730;2023-02-12T05:14:56;4.80;;;3.67;;
38262;SDS011;24054;50.128;19.730;2023-02-12T05:17:23;4.50;;;3.83;;
38262;SDS011;24054;50.128;19.730;2023-02-12T05:19:50;4.05;;;3.35;;
38262;SDS011;24054;50.128;19.730;2023-02-12T05:22:17;5.10;;;4.10;;
38262;SDS011;24054;50.128;19.730;2023-02-12T05:24:44;5.85;;;4.07;;
38262;SDS011;24054;50.128;19.730;2023-02-12T05:27:11;4.55;;;3.40;;
38262;SDS011;24054;50.128;19.730;2023-02-12T05:29:40;4.63;;;3.95;;
38262;SDS011;24054;50.128;19.730;2023-02-12T05:32:07;4.45;;;3.60;;
38262;SDS011;24054;50.128;19.730;2023-02-12T05:34:34;6.57;;;3.95;;
38262;SDS011;24054;50.128;19.730;2023-02-12T05:37:02;4.17;;;3.40;;
38262;SDS011;24054;50.128;19.730;2023-02-12T05:39:29;4.38;;;3.80;;
38262;SDS011;24054;50.128;19.730;2023-02-12T05:41:56;5.20;;;3.70;;
38262;SDS011;24054;50.128;19.730;2023-02-12T05:44:23;4.22;;;3.63;;
38262;SDS011;24054;50.128;19.730;2023-02-12T05:46:51;4.82;;;3.55;;
38262;SDS011;24054;50.128;19.730;2023-02-12T05:49:18;4.15;;;3.22;;
38262;SDS011;24054;50.128;19.730;2023-02-12T05:51:45;3.53;;;3.13;;
38262;SDS011;24054;50.128;19.730;2023-02-12T05:54:12;5.10;;;3.80;;
38262;SDS011;24054;50.128;19.730;2023-02-12T05:56:41;5.05;;;3.20;;
38262;SDS011;24054;50.128;19.730;2023-02-12T05:59:13;4.38;;;3.22;;
38262;SDS011;24054;50.128;19.730;2023-02-12T06:01:41;3.75;;;3.28;;
38262;SDS011;24054;50.128;19.730;2023-02-12T06:04:12;4.07;;;3.35;;
38262;SDS011;24054;50.128;19.730;2023-02-12T06:06:40;4.28;;;3.47;;
38262;SDS011;24054;50.128;19.730;2023-02-12T06:09:08;4.22;;;3.53;;
38262;SDS011;24054;50.128;19.730;2023-02-12T06:11:36;4.07;;;3.40;;
38262;SDS011;24054;50.128;19.730;2023-02-12T06:14:03;4.38;;;3.47;;
38262;SDS011;24054;50.128;19.730;2023-02-12T06:16:31;3.78;;;3.30;;
38262;SDS011;24054;50.128;19.730;2023-02-12T06:19:00;4.13;;;3.33;;
38262;SDS011;24054;50.128;19.730;2023-02-12T06:21:30;5.22;;;3.30;;
38262;SDS011;24054;50.128;19.730;2023-02-12T06:23:58;3.90;;;3.38;;
38262;SDS011;24054;50.128;19.730;2023-02-12T06:26:25;4.47;;;3.22;;
38262;SDS011;24054;50.128;19.730;2023-02-12T06:28:52;4.03;;;3.28;;
38262;SDS011;24054;50.128;19.730;2023-02-12T06:31:20;4.40;;;3.03;;
38262;SDS011;24054;50.128;19.730;2023-02-12T06:33:48;5.85;;;3.38;;
38262;SDS011;24054;50.128;19.730;2023-02-12T06:36:16;4.50;;;3.17;;
38262;SDS011;24054;50.128;19.730;2023-02-12T06:38:45;5.35;;;3.45;;
38262;SDS011;24054;50.128;19.730;2023-02-12T06:41:12;6.78;;;3.58;;
38262;SDS011;24054;50.128;19.730;2023-02-12T06:43:39;10.52;;;4.47;;
38262;SDS011;24054;50.128;19.730;2023-02-12T06:46:06;12.15;;;4.43;;
38262;SDS011;24054;50.128;19.730;2023-02-12T06:48:33;10.98;;;4.18;;
38262;SDS011;24054;50.128;19.730;2023-02-12T06:51:04;12.27;;;4.70;;
38262;SDS011;24054;50.128;19.730;2023-02-12T06:53:32;14.18;;;4.63;;
38262;SDS011;24054;50.128;19.730;2023-02-12T06:56:01;14.70;;;4.68;;
38262;SDS011;24054;50.128;19.730;2023-02-12T06:58:30;20.27;;;5.22;;
38262;SDS011;24054;50.128;19.730;2023-02-12T07:01:06;13.50;;;4.63;;
38262;SDS011;24054;50.128;19.730;2023-02-12T07:03:36;10.77;;;4.53;;
38262;SDS011;24054;50.128;19.730;2023-02-12T07:06:03;10.77;;;4.55;;
38262;SDS011;24054;50.128;19.730;2023-02-12T07:08:30;15.30;;;4.80;;
38262;SDS011;24054;50.128;19.730;2023-02-12T07:10:57;10.50;;;4.50;;
38262;SDS011;24054;50.128;19.730;2023-02-12T07:13:26;11.32;;;4.38;;
38262;SDS011;24054;50.128;19.730;2023-02-12T07:15:53;12.52;;;4.82;;
38262;SDS011;24054;50.128;19.730;2023-02-12T07:18:20;11.88;;;5.55;;
38262;SDS011;24054;50.128;19.730;2023-02-12T07:20:47;14.88;;;6.20;;
38262;SDS011;24054;50.128;19.730;2023-02-12T07:23:17;15.70;;;6.20;;
38262;SDS011;24054;50.128;19.730;2023-02-12T07:25:52;18.92;;;7.85;;
38262;SDS011;24054;50.128;19.730;2023-02-12T07:28:24;16.42;;;6.63;;
38262;SDS011;24054;50.128;19.730;2023-02-12T07:30:53;16.70;;;8.65;;
38262;SDS011;24054;50.128;19.730;2023-02-12T07:33:21;17.50;;;7.75;;
38262;SDS011;24054;50.128;19.730;2023-02-12T07:35:48;19.67;;;8.70;;
38262;SDS011;24054;50.128;19.730;2023-02-12T07:38:15;17.13;;;8.40;;
38262;SDS011;24054;50.128;19.730;2023-02-12T07:40:43;19.27;;;9.18;;
38262;SDS011;24054;50.128;19.730;2023-02-12T07:43:10;19.67;;;9.13;;
38262;SDS011;24054;50.128;19.730;2023-02-12T07:45:38;19.63;;;9.38;;
38262;SDS011;24054;50.128;19.730;2023-02-12T07:48:05;21.85;;;8.82;;
38262;SDS011;24054;50.128;19.730;2023-02-12T07:50:32;14.60;;;8.07;;
38262;SDS011;24054;50.128;19.730;2023-02-12T07:53:02;18.77;;;8.27;;
38262;SDS011;24054;50.128;19.730;2023-02-12T07:55:29;18.20;;;9.00;;
38262;SDS011;24054;50.128;19.730;2023-02-12T07:57:56;17.17;;;8.30;;
38262;SDS011;24054;50.128;19.730;2023-02-12T08:00:23;18.30;;;8.55;;
38262;SDS011;24054;50.128;19.730;2023-02-12T08:02:52;13.57;;;7.57;;
38262;SDS011;24054;50.128;19.730;2023-02-12T08:05:19;13.60;;;7.68;;
38262;SDS011;24054;50.128;19.730;2023-02-12T08:07:46;19.60;;;8.77;;
38262;SDS011;24054;50.128;19.730;2023-02-12T08:10:16;14.93;;;7.60;;
38262;SDS011;24054;50.128;19.730;2023-02-12T08:12:46;15.30;;;7.45;;
38262;SDS011;24054;50.128;19.730;2023-02-12T08:15:13;18.05;;;8.52;;
38262;SDS011;24054;50.128;19.730;2023-02-12T08:17:40;19.30;;;8.65;;
38262;SDS011;24054;50.128;19.730;2023-02-12T08:20:09;14.23;;;7.55;;
38262;SDS011;24054;50.128;19.730;2023-02-12T08:22:36;16.30;;;7.88;;
38262;SDS011;24054;50.128;19.730;2023-02-12T08:25:04;14.20;;;7.53;;
38262;SDS011;24054;50.128;19.730;2023-02-12T08:27:31;13.80;;;7.70;;
38262;SDS011;24054;50.128;19.730;2023-02-12T08:29:58;13.05;;;7.43;;
38262;SDS011;24054;50.128;19.730;2023-02-12T08:32:25;14.35;;;7.25;;
38262;SDS011;24054;50.128;19.730;2023-02-12T08:34:53;16.33;;;8.10;;
38262;SDS011;24054;50.128;19.730;2023-02-12T08:37:21;11.95;;;6.55;;
38262;SDS011;24054;50.128;19.730;2023-02-12T08:39:48;16.10;;;6.63;;
38262;SDS011;24054;50.128;19.730;2023-02-12T08:42:15;14.82;;;7.10;;
38262;SDS011;24054;50.128;19.730;2023-02-12T08:44:43;11.07;;;6.60;;
38262;SDS011;24054;50.128;19.730;2023-02-12T08:47:10;13.13;;;6.88;;
38262;SDS011;24054;50.128;19.730;2023-02-12T08:49:37;16.40;;;6.93;;
38262;SDS011;24054;50.128;19.730;2023-02-12T08:52:04;14.00;;;7.15;;
38262;SDS011;24054;50.128;19.730;2023-02-12T08:54:32;17.30;;;7.55;;
38262;SDS011;24054;50.128;19.730;2023-02-12T08:57:02;16.73;;;7.40;;
38262;SDS011;24054;50.128;19.730;2023-02-12T08:59:29;14.98;;;6.75;;
38262;SDS011;24054;50.128;19.730;2023-02-12T09:01:56;16.50;;;7.75;;
38262;SDS011;24054;50.128;19.730;2023-02-12T09:04:25;16.67;;;7.53;;
38262;SDS011;24054;50.128;19.730;2023-02-12T09:06:53;28.75;;;8.82;;
38262;SDS011;24054;50.128;19.730;2023-02-12T09:09:21;20.27;;;7.68;;
38262;SDS011;24054;50.128;19.730;2023-02-12T09:11:50;15.57;;;7.88;;
38262;SDS011;24054;50.128;19.730;2023-02-12T09:14:17;14.48;;;7.00;;
38262;SDS011;24054;50.128;19.730;2023-02-12T09:16:47;14.70;;;7.03;;
38262;SDS011;24054;50.128;19.730;2023-02-12T09:19:16;13.95;;;7.18;;
38262;SDS011;24054;50.128;19.730;2023-02-12T09:21:44;13.02;;;6.88;;
38262;SDS011;24054;50.128;19.730;2023-02-12T09:24:10;14.60;;;6.97;;
38262;SDS011;24054;50.128;19.730;2023-02-12T09:26:38;13.82;;;6.32;;
38262;SDS011;24054;50.128;19.730;2023-02-12T09:29:06;15.93;;;7.05;;
38262;SDS011;24054;50.128;19.730;2023-02-12T09:31:34;13.75;;;6.65;;
38262;SDS011;24054;50.128;19.730;2023-02-12T09:34:02;15.68;;;6.75;;
38262;SDS011;24054;50.128;19.730;2023-02-12T09:36:31;16.63;;;6.78;;
38262;SDS011;24054;50.128;19.730;2023-02-12T09:39:00;14.63;;;7.32;;
38262;SDS011;24054;50.128;19.730;2023-02-12T09:44:14;12.98;;;7.07;;
38262;SDS011;24054;50.128;19.730;2023-02-12T09:46:46;13.90;;;6.80;;
38262;SDS011;24054;50.128;19.730;2023-02-12T09:49:18;14.25;;;6.90;;
38262;SDS011;24054;50.128;19.730;2023-02-12T09:51:56;12.40;;;6.57;;
38262;SDS011;24054;50.128;19.730;2023-02-12T09:54:27;12.20;;;6.38;;
38262;SDS011;24054;50.128;19.730;2023-02-12T09:56:59;12.20;;;6.20;;
38262;SDS011;24054;50.128;19.730;2023-02-12T09:59:32;18.92;;;7.53;;
38262;SDS011;24054;50.128;19.730;2023-02-12T10:02:05;13.23;;;6.65;;
38262;SDS011;24054;50.128;19.730;2023-02-12T10:04:37;14.02;;;7.03;;
38262;SDS011;24054;50.128;19.730;2023-02-12T10:07:07;15.13;;;6.28;;
38262;SDS011;24054;50.128;19.730;2023-02-12T10:12:22;13.65;;;6.50;;
38262;SDS011;24054;50.128;19.730;2023-02-12T10:15:05;17.67;;;6.15;;
38262;SDS011;24054;50.128;19.730;2023-02-12T10:17:44;12.18;;;5.55;;
38262;SDS011;24054;50.128;19.730;2023-02-12T10:20:23;14.35;;;5.70;;
38262;SDS011;24054;50.128;19.730;2023-02-12T10:23:07;10.20;;;4.90;;
38262;SDS011;24054;50.128;19.730;2023-02-12T10:25:47;7.47;;;4.72;;
38262;SDS011;24054;50.128;19.730;2023-02-12T10:31:53;15.52;;;4.60;;
38262;SDS011;24054;50.128;19.730;2023-02-12T10:34:25;6.60;;;4.43;;
38262;SDS011;24054;50.128;19.730;2023-02-12T10:36:57;31.27;;;5.68;;
38262;SDS011;24054;50.128;19.730;2023-02-12T10:39:30;8.93;;;4.70;;
38262;SDS011;24054;50.128;19.730;2023-02-12T10:42:01;9.85;;;4.90;;
38262;SDS011;24054;50.128;19.730;2023-02-12T10:44:35;7.97;;;4.60;;
38262;SDS011;24054;50.128;19.730;2023-02-12T10:47:04;7.68;;;4.32;;
38262;SDS011;24054;50.128;19.730;2023-02-12T10:49:32;9.20;;;4.05;;
38262;SDS011;24054;50.128;19.730;2023-02-12T10:52:07;6.60;;;4.43;;
38262;SDS011;24054;50.128;19.730;2023-02-12T10:54:39;10.13;;;3.97;;
38262;SDS011;24054;50.128;19.730;2023-02-12T10:57:09;6.93;;;3.40;;
38262;SDS011;24054;50.128;19.730;2023-02-12T10:59:41;7.03;;;4.15;;
38262;SDS011;24054;50.128;19.730;2023-02-12T11:04:49;7.68;;;3.75;;
38262;SDS011;24054;50.128;19.730;2023-02-12T11:07:16;11.15;;;4.75;;
38262;SDS011;24054;50.128;19.730;2023-02-12T11:09:44;6.90;;;4.10;;
38262;SDS011;24054;50.128;19.730;2023-02-12T11:12:20;6.90;;;3.65;;
38262;SDS011;24054;50.128;19.730;2023-02-12T11:14:56;8.23;;;3.90;;
38262;SDS011;24054;50.128;19.730;2023-02-12T11:17:28;7.25;;;3.80;;
38262;SDS011;24054;50.128;19.730;2023-02-12T11:20:05;6.28;;;3.83;;
38262;SDS011;24054;50.128;19.730;2023-02-12T11:22:48;7.65;;;3.55;;
38262;SDS011;24054;50.128;19.730;2023-02-12T11:25:21;7.50;;;3.90;;
38262;SDS011;24054;50.128;19.730;2023-02-12T11:27:57;5.18;;;3.50;;
38262;SDS011;24054;50.128;19.730;2023-02-12T11:30:27;6.35;;;3.55;;
38262;SDS011;24054;50.128;19.730;2023-02-12T11:32:55;5.40;;;3.35;;
38262;SDS011;24054;50.128;19.730;2023-02-12T11:35:47;8.02;;;3.53;;
38262;SDS011;24054;50.128;19.730;2023-02-12T11:38:17;6.97;;;3.65;;
38262;SDS011;24054;50.128;19.730;2023-02-12T11:40:49;5.00;;;2.95;;
38262;SDS011;24054;50.128;19.730;2023-02-12T11:43:19;7.57;;;3.58;;
38262;SDS011;24054;50.128;19.730;2023-02-12T11:45:49;7.53;;;3.35;;
38262;SDS011;24054;50.128;19.730;2023-02-12T11:48:23;5.70;;;3.38;;
38262;SDS011;24054;50.128;19.730;2023-02-12T11:50:52;4.97;;;3.15;;
38262;SDS011;24054;50.128;19.730;2023-02-12T11:53:22;5.95;;;3.38;;
38262;SDS011;24054;50.128;19.730;2023-02-12T11:55:54;4.80;;;3.00;;
38262;SDS011;24054;50.128;19.730;2023-02-12T11:58:24;4.07;;;3.00;;
38262;SDS011;24054;50.128;19.730;2023-02-12T12:00:53;4.63;;;3.13;;
38262;SDS011;24054;50.128;19.730;2023-02-12T12:03:28;6.30;;;3.00;;
38262;SDS011;24054;50.128;19.730;2023-02-12T12:06:04;6.78;;;3.00;;
38262;SDS011;24054;50.128;19.730;2023-02-12T12:08:35;6.80;;;3.47;;
38262;SDS011;24054;50.128;19.730;2023-02-12T12:11:09;4.97;;;3.03;;
38262;SDS011;24054;50.128;19.730;2023-02-12T12:13:41;4.90;;;2.78;;
38262;SDS011;24054;50.128;19.730;2023-02-12T12:16:15;4.47;;;2.72;;
38262;SDS011;24054;50.128;19.730;2023-02-12T12:19:11;7.10;;;3.25;;
38262;SDS011;24054;50.128;19.730;2023-02-12T12:22:15;9.27;;;3.00;;
38262;SDS011;24054;50.128;19.730;2023-02-12T12:24:57;10.15;;;2.97;;
38262;SDS011;24054;50.128;19.730;2023-02-12T12:27:35;7.30;;;2.80;;
38262;SDS011;24054;50.128;19.730;2023-02-12T12:30:27;18.40;;;2.60;;
38262;SDS011;24054;50.128;19.730;2023-02-12T12:33:04;8.57;;;3.13;;
38262;SDS011;24054;50.128;19.730;2023-02-12T12:35:42;5.45;;;3.10;;
38262;SDS011;24054;50.128;19.730;2023-02-12T12:38:20;20.48;;;4.68;;
38262;SDS011;24054;50.128;19.730;2023-02-12T12:40:57;5.88;;;2.90;;
38262;SDS011;24054;50.128;19.730;2023-02-12T12:43:45;6.22;;;2.95;;
38262;SDS011;24054;50.128;19.730;2023-02-12T12:46:25;5.88;;;3.03;;
38262;SDS011;24054;50.128;19.730;2023-02-12T12:57:58;5.47;;;3.08;;
38262;SDS011;24054;50.128;19.730;2023-02-12T13:00:40;5.65;;;2.50;;
38262;SDS011;24054;50.128;19.730;2023-02-12T13:03:37;4.43;;;2.50;;
38262;SDS011;24054;50.128;19.730;2023-02-12T13:06:40;5.18;;;2.85;;
38262;SDS011;24054;50.128;19.730;2023-02-12T13:09:42;4.90;;;2.90;;
38262;SDS011;24054;50.128;19.730;2023-02-12T13:12:51;4.55;;;2.58;;
38262;SDS011;24054;50.128;19.730;2023-02-12T13:15:32;6.35;;;2.97;;
38262;SDS011;24054;50.128;19.730;2023-02-12T13:18:04;3.85;;;2.30;;
38262;SDS011;24054;50.128;19.730;2023-02-12T13:20:46;4.60;;;2.97;;
38262;SDS011;24054;50.128;19.730;2023-02-12T13:23:19;4.28;;;2.40;;
38262;SDS011;24054;50.128;19.730;2023-02-12T13:25:56;5.57;;;2.58;;
38262;SDS011;24054;50.128;19.730;2023-02-12T13:28:29;4.18;;;2.85;;
38262;SDS011;24054;50.128;19.730;2023-02-12T13:31:02;4.80;;;2.88;;
38262;SDS011;24054;50.128;19.730;2023-02-12T13:33:37;7.88;;;2.95;;
38262;SDS011;24054;50.128;19.730;2023-02-12T13:36:07;6.20;;;3.22;;
38262;SDS011;24054;50.128;19.730;2023-02-12T13:38:38;4.75;;;3.15;;
38262;SDS011;24054;50.128;19.730;2023-02-12T13:41:10;7.03;;;3.75;;
38262;SDS011;24054;50.128;19.730;2023-02-12T13:43:41;7.60;;;3.67;;
38262;SDS011;24054;50.128;19.730;2023-02-12T13:46:13;7.07;;;3.42;;
38262;SDS011;24054;50.128;19.730;2023-02-12T13:48:48;5.13;;;3.15;;
38262;SDS011;24054;50.128;19.730;2023-02-12T13:51:29;5.00;;;3.60;;
38262;SDS011;24054;50.128;19.730;2023-02-12T13:54:11;5.60;;;3.30;;
38262;SDS011;24054;50.128;19.730;2023-02-12T13:56:47;5.65;;;4.18;;
38262;SDS011;24054;50.128;19.730;2023-02-12T14:02:23;5.20;;;3.45;;
38262;SDS011;24054;50.128;19.730;2023-02-12T14:05:26;4.72;;;3.58;;
38262;SDS011;24054;50.128;19.730;2023-02-12T14:07:55;7.50;;;3.85;;
38262;SDS011;24054;50.128;19.730;2023-02-12T14:10:30;4.38;;;3.35;;
38262;SDS011;24054;50.128;19.730;2023-02-12T14:13:10;5.65;;;3.45;;
38262;SDS011;24054;50.128;19.730;2023-02-12T14:15:42;4.85;;;3.80;;
38262;SDS011;24054;50.128;19.730;2023-02-12T14:27:18;8.07;;;4.10;;
38262;SDS011;24054;50.128;19.730;2023-02-12T14:32:56;5.78;;;4.03;;
38262;SDS011;24054;50.128;19.730;2023-02-12T14:35:34;5.82;;;3.65;;
38262;SDS011;24054;50.128;19.730;2023-02-12T14:38:04;6.97;;;3.38;;
38262;SDS011;24054;50.128;19.730;2023-02-12T14:41:21;4.50;;;3.60;;
38262;SDS011;24054;50.128;19.730;2023-02-12T14:53:11;5.95;;;4.55;;
38262;SDS011;24054;50.128;19.730;2023-02-12T14:55:49;5.70;;;4.10;;
38262;SDS011;24054;50.128;19.730;2023-02-12T14:58:17;5.93;;;4.00;;
38262;SDS011;24054;50.128;19.730;2023-02-12T15:00:47;7.25;;;4.53;;
38262;SDS011;24054;50.128;19.730;2023-02-12T15:03:19;4.20;;;3.70;;
38262;SDS011;24054;50.128;19.730;2023-02-12T15:05:53;5.38;;;3.75;;
38262;SDS011;24054;50.128;19.730;2023-02-12T15:08:27;4.93;;;3.70;;
38262;SDS011;24054;50.128;19.730;2023-02-12T15:11:03;5.95;;;3.92;;
38262;SDS011;24054;50.128;19.730;2023-02-12T15:13:42;5.35;;;3.92;;
38262;SDS011;24054;50.128;19.730;2023-02-12T15:16:16;6.28;;;4.55;;
38262;SDS011;24054;50.128;19.730;2023-02-12T15:19:04;5.53;;;3.65;;
38262;SDS011;24054;50.128;19.730;2023-02-12T15:21:41;7.80;;;4.50;;
38262;SDS011;24054;50.128;19.730;2023-02-12T15:24:12;6.32;;;3.88;;
38262;SDS011;24054;50.128;19.730;2023-02-12T15:26:47;5.25;;;4.18;;
38262;SDS011;24054;50.128;19.730;2023-02-12T15:29:18;6.25;;;3.92;;
38262;SDS011;24054;50.128;19.730;2023-02-12T15:31:51;6.97;;;4.68;;
38262;SDS011;24054;50.128;19.730;2023-02-12T15:34:21;6.30;;;4.50;;
38262;SDS011;24054;50.128;19.730;2023-02-12T15:36:50;7.65;;;4.47;;
38262;SDS011;24054;50.128;19.730;2023-02-12T15:39:19;7.32;;;4.90;;
38262;SDS011;24054;50.128;19.730;2023-02-12T15:41:49;6.15;;;4.43;;
38262;SDS011;24054;50.128;19.730;2023-02-12T15:44:21;5.95;;;4.18;;
38262;SDS011;24054;50.128;19.730;2023-02-12T15:46:54;5.30;;;4.25;;
38262;SDS011;24054;50.128;19.730;2023-02-12T15:49:27;7.70;;;4.18;;
38262;SDS011;24054;50.128;19.730;2023-02-12T15:51:56;6.78;;;4.70;;
38262;SDS011;24054;50.128;19.730;2023-02-12T15:54:26;6.80;;;4.50;;